KAGS/AGS METAR and TAF weather

Enter ICAO airport designator
Station Type Date Time Source
KAGS METAR 2019/04/25 01:53 UTC NOAA

KAGS 250153Z 00000KT 10SM CLR 19/14 A2994 RMK AO2 SLP135 T01890144


Station Type Date Time Source
KAGS Decoded METAR 2019/04/25 01:53 UTC NOAA

AUGUSTA BUSH FIELD, GA, United States (KAGS) 33-22N 081-58W 44M
Apr 24, 2019 - 09:53 PM EDT / 2019.04.25 0153 UTC
Wind: Calm:0
Visibility: 10 mile(s):0
Sky conditions: clear
Temperature: 66.0 F (18.9 C)
Dew Point: 57.9 F (14.4 C)
Relative Humidity: 75%
Pressure (altimeter): 29.94 in. Hg (1013 hPa)
ob: KAGS 250153Z 00000KT 10SM CLR 19/14 A2994 RMK AO2 SLP135 T01890144
cycle: 2

Station Type Date Time Source
KAGS TAF 2019/04/24 21:36 UTC NOAA

TAF
AMD KAGS 242034Z 2421/2518 24010G18KT P6SM SCT250
FM250000 23004KT P6SM SCT250
FM251500 24010KT P6SM BKN250

Example: see airport list